Gouwestroom — PDGR — position and weather

sailwx.info

Track history (hours):
 
Tides and Currents Weather Stations Pressure Air Temp Water Temp Dewpoint Dewpoint Depression Visibility Wind Speed Wind Dir Waves Ship Positions

Gouwestroom

Last reported at 2014-Sep-30 17:33 UTC. Time now 2014-Sep-30 17:58 UTC.
Position N 54°15' E 012°10'.

Length 20 m; draft 2.4 m.

Type: Tug. MMSI: 246166000.

Date/timePositionNaut miles runAvg speedWind from/ knotsBaromVisibWave heightAir tempDewpointWater temp
2014-Sep-30 17:33N 54°15' E 012°10'0 0.0
2014-Sep-30 16:33N 54°15' E 012°10'1 0.6
2014-Sep-30 15:33N 54°14' E 012°09'0 0.0
2014-Sep-30 14:32N 54°14' E 012°09'0 0.1
2014-Sep-30 13:33N 54°14' E 012°09'0 0.1
2014-Sep-30 12:33N 54°14' E 012°09'0 0.1
2014-Sep-30 11:33N 54°14' E 012°09'0 0.0
2014-Sep-30 10:33N 54°14' E 012°09'0 0.0
2014-Sep-30 09:33N 54°14' E 012°09'0 0.0
2014-Sep-30 08:33N 54°14' E 012°09'0 0.0
2014-Sep-30 07:33N 54°14' E 012°09'0 0.0
2014-Sep-30 06:33N 54°14' E 012°09'0 0.0
2014-Sep-30 05:33N 54°14' E 012°09'0 0.0
2014-Sep-30 04:33N 54°14' E 012°09'0 0.4
2014-Sep-30 03:32N 54°14' E 012°10'0 0.0
2014-Sep-30 02:33N 54°14' E 012°10'0 0.0
2014-Sep-30 01:33N 54°14' E 012°10'0 0.0
2014-Sep-30 00:33N 54°14' E 012°10'0 0.0
2014-Sep-29 23:33N 54°14' E 012°10'0 0.0
2014-Sep-29 22:33N 54°14' E 012°10'0 0.1
2014-Sep-29 21:33N 54°14' E 012°10'0 0.2
2014-Sep-29 20:33N 54°15' E 012°10'0 0.0
2014-Sep-29 19:33N 54°15' E 012°10'0 0.0
2014-Sep-29 18:33N 54°15' E 012°10'0 0.0
2014-Sep-29 17:33N 54°15' E 012°10'0 0.0
2014-Sep-29 16:33N 54°15' E 012°10'0 0.3
2014-Sep-29 15:32N 54°14' E 012°09'0 0.3
2014-Sep-29 14:33N 54°14' E 012°09'0 0.0
2014-Sep-29 13:33N 54°14' E 012°09'0 0.0
2014-Sep-29 12:33N 54°14' E 012°09'1 0.7
2014-Sep-29 11:33N 54°15' E 012°10'4 3.5
2014-Sep-29 10:33N 54°12' E 012°06'3 2.8
2014-Sep-29 09:33N 54°09' E 012°06'0 0.0
2014-Sep-29 08:33N 54°09' E 012°06'0 0.0
2014-Sep-29 07:33N 54°09' E 012°06'0 0.0
2014-Sep-29 06:33N 54°09' E 012°06'0 0.0
2014-Sep-29 05:33N 54°09' E 012°06'0 0.0
2014-Sep-29 04:32N 54°09' E 012°06'0 0.0
2014-Sep-29 03:30N 54°09' E 012°06'0 0.0
2014-Sep-29 02:33N 54°09' E 012°06'0 0.0
2014-Sep-29 01:32N 54°09' E 012°06'0 0.0
2014-Sep-29 00:33N 54°09' E 012°06'0 0.0
2014-Sep-28 23:33N 54°09' E 012°06'0 0.0
2014-Sep-28 22:33N 54°09' E 012°06'0 0.0
2014-Sep-28 21:33N 54°09' E 012°06'0 0.0
2014-Sep-28 20:33N 54°09' E 012°06'0 0.0
2014-Sep-28 19:33N 54°09' E 012°06'0 0.0
2014-Sep-28 18:33N 54°09' E 012°06'0 0.0
2014-Sep-28 17:33N 54°09' E 012°06'0 0.0
2014-Sep-28 16:33N 54°09' E 012°06'0 0.0
2014-Sep-28 15:33N 54°09' E 012°06'0 0.0
2014-Sep-28 14:32N 54°09' E 012°06'0 0.0
2014-Sep-28 13:33N 54°09' E 012°06'0 0.0
2014-Sep-28 12:33N 54°09' E 012°06'0 0.0
2014-Sep-28 11:33N 54°09' E 012°06'3 3.2
2014-Sep-28 10:33N 54°13' E 012°06'4 3.9
2014-Sep-28 09:32N 54°15' E 012°11'0 0.5
2014-Sep-28 08:32N 54°15' E 012°11'0 0.0
2014-Sep-28 07:33N 54°15' E 012°11'0 0.0
2014-Sep-28 06:33N 54°15' E 012°11'0 0.0
2014-Sep-28 05:33N 54°15' E 012°11'0 0.0
2014-Sep-28 04:33N 54°15' E 012°11'0 0.0
2014-Sep-28 03:33N 54°15' E 012°11'0 0.0
2014-Sep-28 02:34N 54°15' E 012°11'0 0.0
2014-Sep-28 01:33N 54°15' E 012°11'0 0.0
2014-Sep-28 00:33N 54°15' E 012°11'0 0.0
2014-Sep-27 23:32N 54°15' E 012°11'0 0.0
2014-Sep-27 22:33N 54°15' E 012°11'0 0.0
2014-Sep-27 21:33N 54°15' E 012°11'0 0.0
2014-Sep-27 20:33N 54°15' E 012°11'0 0.0
2014-Sep-27 19:32N 54°15' E 012°11'0 0.0
2014-Sep-27 18:33N 54°15' E 012°12'0 0.0
2014-Sep-27 17:28N 54°15' E 012°12'0 0.0
2014-Sep-27 16:33N 54°15' E 012°12'0 0.0
2014-Sep-27 15:29N 54°15' E 012°12'0 0.0
2014-Sep-27 14:32N 54°15' E 012°12'0 0.0
2014-Sep-27 13:33N 54°15' E 012°12'0 0.0
2014-Sep-27 12:33N 54°15' E 012°12'0 0.0
2014-Sep-27 11:33N 54°15' E 012°12'0 0.0
2014-Sep-27 10:33N 54°15' E 012°12'0 0.0
2014-Sep-27 09:33N 54°15' E 012°12'0 0.0
2014-Sep-27 08:33N 54°15' E 012°12'2 1.9
2014-Sep-27 07:33N 54°15' E 012°09'4 4.3
2014-Sep-27 06:33N 54°11' E 012°06'1 1.4
2014-Sep-27 05:31N 54°09' E 012°06'0 0.0
2014-Sep-27 04:33N 54°09' E 012°06'0 0.0
2014-Sep-27 03:33N 54°09' E 012°06'0 0.0
2014-Sep-27 02:33N 54°09' E 012°06'0 0.0
2014-Sep-27 01:23N 54°09' E 012°06'0 0.0
2014-Sep-27 00:31N 54°09' E 012°06'0 0.0
2014-Sep-26 23:30N 54°09' E 012°06'0 0.0
2014-Sep-26 22:30N 54°09' E 012°06'0 0.0
2014-Sep-26 21:33N 54°09' E 012°06'0 0.0
2014-Sep-26 20:32N 54°09' E 012°06'0 0.0
2014-Sep-26 19:33N 54°09' E 012°06'0 0.0
2014-Sep-26 18:33N 54°09' E 012°06'0 0.0
2014-Sep-26 17:33N 54°09' E 012°06'0 0.0
2014-Sep-26 16:33N 54°09' E 012°06'0 0.0
2014-Sep-26 15:33N 54°09' E 012°06'0 0.0
2014-Sep-26 14:33N 54°09' E 012°06'0 0.0
2014-Sep-26 13:33N 54°09' E 012°06'0 0.0
2014-Sep-26 12:33N 54°09' E 012°06'0 0.0
2014-Sep-26 11:33N 54°09' E 012°06'0 0.0
2014-Sep-26 10:33N 54°09' E 012°06'0 0.0
2014-Sep-26 09:33N 54°09' E 012°06'0 0.0
2014-Sep-26 08:33N 54°09' E 012°06'0 0.0
2014-Sep-26 07:33N 54°09' E 012°06'0 0.0
2014-Sep-26 06:33N 54°09' E 012°06'0 0.0
2014-Sep-26 05:33N 54°09' E 012°06'0 0.0
2014-Sep-26 04:33N 54°09' E 012°06'0 0.0
2014-Sep-26 03:33N 54°09' E 012°06'0 0.0
2014-Sep-26 02:34N 54°09' E 012°06'0 0.0
2014-Sep-26 01:33N 54°09' E 012°06'0 0.0
2014-Sep-26 00:33N 54°09' E 012°06'0 0.0
2014-Sep-25 23:33N 54°09' E 012°06'0 0.0
2014-Sep-25 22:33N 54°09' E 012°06'0 0.0
2014-Sep-25 21:33N 54°09' E 012°06'0 0.0
2014-Sep-25 20:29N 54°09' E 012°06'0 0.0
2014-Sep-25 19:33N 54°09' E 012°06'0 0.0
2014-Sep-25 18:33N 54°09' E 012°06'0 0.0
2014-Sep-25 17:33N 54°09' E 012°06'0 0.0
2014-Sep-25 16:33N 54°09' E 012°06'0 0.0
2014-Sep-25 15:33N 54°09' E 012°06'0 0.0
2014-Sep-25 14:33N 54°09' E 012°06'0 0.0
2014-Sep-25 13:33N 54°09' E 012°06'0 0.0
2014-Sep-25 12:33N 54°09' E 012°06'0 0.0
2014-Sep-25 11:33N 54°09' E 012°06'0 0.0
2014-Sep-25 10:33N 54°09' E 012°06'0 0.0
2014-Sep-25 09:33N 54°09' E 012°06'0 0.0
2014-Sep-25 08:27N 54°09' E 012°06'0 0.0
2014-Sep-25 07:33N 54°09' E 012°06'0 0.0
2014-Sep-25 06:33N 54°09' E 012°06'0 0.0
2014-Sep-25 05:33N 54°09' E 012°06'0 0.0
2014-Sep-25 04:33N 54°09' E 012°06'0 0.0
2014-Sep-25 03:33N 54°09' E 012°06'0 0.0
2014-Sep-25 02:33N 54°09' E 012°06'0 0.0
2014-Sep-25 01:33N 54°09' E 012°06'0 0.0
2014-Sep-25 00:33N 54°09' E 012°06'0 0.0
2014-Sep-24 23:33N 54°09' E 012°06'0 0.0
2014-Sep-24 22:33N 54°09' E 012°06'0 0.0
2014-Sep-24 21:33N 54°09' E 012°06'0 0.0
2014-Sep-24 20:33N 54°09' E 012°06'0 0.0
2014-Sep-24 19:33N 54°09' E 012°06'0 0.0
2014-Sep-24 18:33N 54°09' E 012°06'0 0.0
2014-Sep-24 17:33N 54°09' E 012°06'0 0.0
2014-Sep-24 16:33N 54°09' E 012°06'0 0.0
2014-Sep-24 15:33N 54°09' E 012°06'0 0.0
2014-Sep-24 14:32N 54°09' E 012°06'0 0.0
2014-Sep-24 13:33N 54°09' E 012°06'0 0.0
2014-Sep-24 12:33N 54°09' E 012°06'0 0.0
2014-Sep-24 11:29N 54°09' E 012°06'0 0.0
2014-Sep-24 10:33N 54°09' E 012°06'0 0.0
2014-Sep-24 09:33N 54°09' E 012°06'0 0.0
2014-Sep-24 08:33N 54°09' E 012°06'0 0.0
2014-Sep-24 07:33N 54°09' E 012°06'0 0.0
2014-Sep-24 06:33N 54°09' E 012°06'0 0.0
2014-Sep-24 05:33N 54°09' E 012°06'0 0.0
2014-Sep-24 04:33N 54°09' E 012°06'0 0.0
2014-Sep-24 03:33N 54°09' E 012°06'0 0.0
2014-Sep-24 02:32N 54°09' E 012°06'2 2.1
2014-Sep-24 01:33N 54°11' E 012°05'5 4.5
2014-Sep-24 00:31N 54°15' E 012°10'1 1.2
2014-Sep-23 23:33N 54°15' E 012°12'0 0.0
2014-Sep-23 22:33N 54°16' E 012°12'0 0.0
2014-Sep-23 21:33N 54°16' E 012°12'0 0.0
2014-Sep-23 20:33N 54°16' E 012°12'0 0.0
2014-Sep-23 19:33N 54°16' E 012°12'0 0.0
2014-Sep-23 18:33N 54°16' E 012°12'0 0.0
2014-Sep-23 17:33N 54°16' E 012°12'0 0.0
2014-Sep-23 16:33N 54°16' E 012°12'0 0.0
2014-Sep-23 15:33N 54°16' E 012°12'0 0.0
2014-Sep-23 14:33N 54°16' E 012°12'1 0.9
2014-Sep-23 13:33N 54°15' E 012°10'3 3.1
2014-Sep-23 12:33N 54°13' E 012°06'3 3.0
2014-Sep-23 11:33N 54°10' E 012°06'2 1.8
2014-Sep-23 10:33N 54°12' E 012°06'2 2.4
2014-Sep-23 09:33N 54°09' E 012°06'0 0.0
2014-Sep-23 08:33N 54°09' E 012°06'0 0.0
2014-Sep-23 07:33N 54°09' E 012°06'1 1.5
2014-Sep-23 06:33N 54°11' E 012°06'1 1.5
2014-Sep-23 05:33N 54°09' E 012°06'0 0.0
2014-Sep-23 04:33N 54°09' E 012°06'0 0.0
2014-Sep-23 03:33N 54°09' E 012°06'0 0.0
2014-Sep-23 02:33N 54°09' E 012°06'0 0.0
2014-Sep-23 01:33N 54°09' E 012°06'0 0.0
2014-Sep-23 00:33N 54°09' E 012°06'0 0.0
2014-Sep-22 23:33N 54°09' E 012°06'0 0.0
2014-Sep-22 22:29N 54°09' E 012°06'0 0.0
2014-Sep-22 21:33N 54°09' E 012°06'0 0.0
2014-Sep-22 20:32N 54°09' E 012°06'0 0.0
2014-Sep-22 19:31N 54°09' E 012°06'0 0.0
2014-Sep-22 18:29N 54°09' E 012°06'0 0.0
2014-Sep-22 17:32N 54°09' E 012°06'0 0.0
2014-Sep-22 16:33N 54°09' E 012°06'0 0.0
2014-Sep-22 15:32N 54°09' E 012°06'0 0.0
2014-Sep-22 14:33N 54°09' E 012°06'0 0.0
2014-Sep-22 13:33N 54°09' E 012°06'0 0.0
2014-Sep-22 12:33N 54°09' E 012°06'0 0.0
2014-Sep-22 11:33N 54°09' E 012°06'0 0.0
2014-Sep-22 10:33N 54°09' E 012°06'0 0.0
2014-Sep-22 09:33N 54°09' E 012°06'0 0.0
2014-Sep-22 08:33N 54°09' E 012°06'0 0.0
2014-Sep-22 07:33N 54°09' E 012°06'0 0.0
2014-Sep-22 06:33N 54°09' E 012°06'0 0.0
2014-Sep-22 05:33N 54°09' E 012°06'0 0.0
2014-Sep-22 04:32N 54°09' E 012°06'0 0.0
2014-Sep-22 03:33N 54°09' E 012°06'0 0.0
2014-Sep-22 02:33N 54°09' E 012°06'0 0.0
2014-Sep-22 01:33N 54°09' E 012°06'0 0.0
2014-Sep-22 00:33N 54°09' E 012°06'0 0.0
2014-Sep-21 23:31N 54°09' E 012°06'0 0.0
2014-Sep-21 22:33N 54°09' E 012°06'0 0.0
2014-Sep-21 21:33N 54°09' E 012°06'0 0.0
2014-Sep-21 20:32N 54°09' E 012°06'0 0.0
2014-Sep-21 19:32N 54°09' E 012°06'0 0.0
2014-Sep-21 18:33N 54°09' E 012°06'0 0.0
2014-Sep-21 17:33N 54°09' E 012°06'0 0.0
2014-Sep-21 16:33N 54°09' E 012°06'0 0.0
2014-Sep-21 15:33N 54°09' E 012°06'0 0.0
2014-Sep-21 14:33N 54°09' E 012°06'0 0.0
2014-Sep-21 13:33N 54°09' E 012°06'0 0.0
2014-Sep-21 12:33N 54°09' E 012°06'0 0.0
2014-Sep-21 11:33N 54°09' E 012°06'0 0.0
2014-Sep-21 10:33N 54°09' E 012°06'0 0.0
2014-Sep-21 09:34N 54°09' E 012°06'0 0.0
2014-Sep-21 08:33N 54°09' E 012°06'0 0.0
2014-Sep-21 07:33N 54°09' E 012°06'0 0.0
2014-Sep-21 06:34N 54°09' E 012°06'0 0.0
2014-Sep-21 05:34N 54°09' E 012°06'2 2.0
2014-Sep-21 04:33N 54°11' E 012°05'3 3.0
2014-Sep-21 03:33N 54°14' E 012°07'3 2.9
2014-Sep-21 02:33N 54°16' E 012°12'1 0.7
2014-Sep-21 01:34N 54°15' E 012°11'0 0.2
2014-Sep-21 00:33N 54°15' E 012°11'0 0.0
2014-Sep-20 23:33N 54°15' E 012°11'0 0.0
2014-Sep-20 22:33N 54°15' E 012°11'0 0.0
2014-Sep-20 21:34N 54°15' E 012°11'0 0.0
2014-Sep-20 20:34N 54°15' E 012°11'0 0.0
2014-Sep-20 19:33N 54°15' E 012°11'0 0.0
2014-Sep-20 18:33N 54°15' E 012°11'0 0.0
2014-Sep-20 17:33N 54°15' E 012°11'  
Track history (hours):
 
Tides and Currents Weather Stations Pressure Air Temp Water Temp Dewpoint Dewpoint Depression Visibility Wind Speed Wind Dir Waves Ship Positions

Gouwestroom

Last reported at 2014-Sep-30 17:33 UTC. Time now 2014-Sep-30 17:58 UTC.
Position N 54°15' E 012°10'.

Length 20 m; draft 2.4 m.

Type: Tug. MMSI: 246166000.

Date/timePositionNaut miles runAvg speedWind from/ knotsBaromVisibWave heightAir tempDewpointWater temp
2014-Sep-30 17:33N 54°15' E 012°10'0 0.0
2014-Sep-30 16:33N 54°15' E 012°10'1 0.6
2014-Sep-30 15:33N 54°14' E 012°09'0 0.0
2014-Sep-30 14:32N 54°14' E 012°09'0 0.1
2014-Sep-30 13:33N 54°14' E 012°09'0 0.1
2014-Sep-30 12:33N 54°14' E 012°09'0 0.1
2014-Sep-30 11:33N 54°14' E 012°09'0 0.0
2014-Sep-30 10:33N 54°14' E 012°09'0 0.0
2014-Sep-30 09:33N 54°14' E 012°09'0 0.0
2014-Sep-30 08:33N 54°14' E 012°09'0 0.0
2014-Sep-30 07:33N 54°14' E 012°09'0 0.0
2014-Sep-30 06:33N 54°14' E 012°09'0 0.0
2014-Sep-30 05:33N 54°14' E 012°09'0 0.0
2014-Sep-30 04:33N 54°14' E 012°09'0 0.4
2014-Sep-30 03:32N 54°14' E 012°10'0 0.0
2014-Sep-30 02:33N 54°14' E 012°10'0 0.0
2014-Sep-30 01:33N 54°14' E 012°10'0 0.0
2014-Sep-30 00:33N 54°14' E 012°10'0 0.0
2014-Sep-29 23:33N 54°14' E 012°10'0 0.0
2014-Sep-29 22:33N 54°14' E 012°10'0 0.1
2014-Sep-29 21:33N 54°14' E 012°10'0 0.2
2014-Sep-29 20:33N 54°15' E 012°10'0 0.0
2014-Sep-29 19:33N 54°15' E 012°10'0 0.0
2014-Sep-29 18:33N 54°15' E 012°10'0 0.0
2014-Sep-29 17:33N 54°15' E 012°10'0 0.0
2014-Sep-29 16:33N 54°15' E 012°10'0 0.3
2014-Sep-29 15:32N 54°14' E 012°09'0 0.3
2014-Sep-29 14:33N 54°14' E 012°09'0 0.0
2014-Sep-29 13:33N 54°14' E 012°09'0 0.0
2014-Sep-29 12:33N 54°14' E 012°09'1 0.7
2014-Sep-29 11:33N 54°15' E 012°10'4 3.5
2014-Sep-29 10:33N 54°12' E 012°06'3 2.8
2014-Sep-29 09:33N 54°09' E 012°06'0 0.0
2014-Sep-29 08:33N 54°09' E 012°06'0 0.0
2014-Sep-29 07:33N 54°09' E 012°06'0 0.0
2014-Sep-29 06:33N 54°09' E 012°06'0 0.0
2014-Sep-29 05:33N 54°09' E 012°06'0 0.0
2014-Sep-29 04:32N 54°09' E 012°06'0 0.0
2014-Sep-29 03:30N 54°09' E 012°06'0 0.0
2014-Sep-29 02:33N 54°09' E 012°06'0 0.0
2014-Sep-29 01:32N 54°09' E 012°06'0 0.0
2014-Sep-29 00:33N 54°09' E 012°06'0 0.0
2014-Sep-28 23:33N 54°09' E 012°06'0 0.0
2014-Sep-28 22:33N 54°09' E 012°06'0 0.0
2014-Sep-28 21:33N 54°09' E 012°06'0 0.0
2014-Sep-28 20:33N 54°09' E 012°06'0 0.0
2014-Sep-28 19:33N 54°09' E 012°06'0 0.0
2014-Sep-28 18:33N 54°09' E 012°06'0 0.0
2014-Sep-28 17:33N 54°09' E 012°06'0 0.0
2014-Sep-28 16:33N 54°09' E 012°06'0 0.0
2014-Sep-28 15:33N 54°09' E 012°06'0 0.0
2014-Sep-28 14:32N 54°09' E 012°06'0 0.0
2014-Sep-28 13:33N 54°09' E 012°06'0 0.0
2014-Sep-28 12:33N 54°09' E 012°06'0 0.0
2014-Sep-28 11:33N 54°09' E 012°06'3 3.2
2014-Sep-28 10:33N 54°13' E 012°06'4 3.9
2014-Sep-28 09:32N 54°15' E 012°11'0 0.5
2014-Sep-28 08:32N 54°15' E 012°11'0 0.0
2014-Sep-28 07:33N 54°15' E 012°11'0 0.0
2014-Sep-28 06:33N 54°15' E 012°11'0 0.0
2014-Sep-28 05:33N 54°15' E 012°11'0 0.0
2014-Sep-28 04:33N 54°15' E 012°11'0 0.0
2014-Sep-28 03:33N 54°15' E 012°11'0 0.0
2014-Sep-28 02:34N 54°15' E 012°11'0 0.0
2014-Sep-28 01:33N 54°15' E 012°11'0 0.0
2014-Sep-28 00:33N 54°15' E 012°11'0 0.0
2014-Sep-27 23:32N 54°15' E 012°11'0 0.0
2014-Sep-27 22:33N 54°15' E 012°11'0 0.0
2014-Sep-27 21:33N 54°15' E 012°11'0 0.0
2014-Sep-27 20:33N 54°15' E 012°11'0 0.0
2014-Sep-27 19:32N 54°15' E 012°11'0 0.0
2014-Sep-27 18:33N 54°15' E 012°12'0 0.0
2014-Sep-27 17:28N 54°15' E 012°12'0 0.0
2014-Sep-27 16:33N 54°15' E 012°12'0 0.0
2014-Sep-27 15:29N 54°15' E 012°12'0 0.0
2014-Sep-27 14:32N 54°15' E 012°12'0 0.0
2014-Sep-27 13:33N 54°15' E 012°12'0 0.0
2014-Sep-27 12:33N 54°15' E 012°12'0 0.0
2014-Sep-27 11:33N 54°15' E 012°12'0 0.0
2014-Sep-27 10:33N 54°15' E 012°12'0 0.0
2014-Sep-27 09:33N 54°15' E 012°12'0 0.0
2014-Sep-27 08:33N 54°15' E 012°12'2 1.9
2014-Sep-27 07:33N 54°15' E 012°09'4 4.3
2014-Sep-27 06:33N 54°11' E 012°06'1 1.4
2014-Sep-27 05:31N 54°09' E 012°06'0 0.0
2014-Sep-27 04:33N 54°09' E 012°06'0 0.0
2014-Sep-27 03:33N 54°09' E 012°06'0 0.0
2014-Sep-27 02:33N 54°09' E 012°06'0 0.0
2014-Sep-27 01:23N 54°09' E 012°06'0 0.0
2014-Sep-27 00:31N 54°09' E 012°06'0 0.0
2014-Sep-26 23:30N 54°09' E 012°06'0 0.0
2014-Sep-26 22:30N 54°09' E 012°06'0 0.0
2014-Sep-26 21:33N 54°09' E 012°06'0 0.0
2014-Sep-26 20:32N 54°09' E 012°06'0 0.0
2014-Sep-26 19:33N 54°09' E 012°06'0 0.0
2014-Sep-26 18:33N 54°09' E 012°06'0 0.0
2014-Sep-26 17:33N 54°09' E 012°06'0 0.0
2014-Sep-26 16:33N 54°09' E 012°06'0 0.0
2014-Sep-26 15:33N 54°09' E 012°06'0 0.0
2014-Sep-26 14:33N 54°09' E 012°06'0 0.0
2014-Sep-26 13:33N 54°09' E 012°06'0 0.0
2014-Sep-26 12:33N 54°09' E 012°06'0 0.0
2014-Sep-26 11:33N 54°09' E 012°06'0 0.0
2014-Sep-26 10:33N 54°09' E 012°06'0 0.0
2014-Sep-26 09:33N 54°09' E 012°06'0 0.0
2014-Sep-26 08:33N 54°09' E 012°06'0 0.0
2014-Sep-26 07:33N 54°09' E 012°06'0 0.0
2014-Sep-26 06:33N 54°09' E 012°06'0 0.0
2014-Sep-26 05:33N 54°09' E 012°06'0 0.0
2014-Sep-26 04:33N 54°09' E 012°06'0 0.0
2014-Sep-26 03:33N 54°09' E 012°06'0 0.0
2014-Sep-26 02:34N 54°09' E 012°06'0 0.0
2014-Sep-26 01:33N 54°09' E 012°06'0 0.0
2014-Sep-26 00:33N 54°09' E 012°06'0 0.0
2014-Sep-25 23:33N 54°09' E 012°06'0 0.0
2014-Sep-25 22:33N 54°09' E 012°06'0 0.0
2014-Sep-25 21:33N 54°09' E 012°06'0 0.0
2014-Sep-25 20:29N 54°09' E 012°06'0 0.0
2014-Sep-25 19:33N 54°09' E 012°06'0 0.0
2014-Sep-25 18:33N 54°09' E 012°06'0 0.0
2014-Sep-25 17:33N 54°09' E 012°06'0 0.0
2014-Sep-25 16:33N 54°09' E 012°06'0 0.0
2014-Sep-25 15:33N 54°09' E 012°06'0 0.0
2014-Sep-25 14:33N 54°09' E 012°06'0 0.0
2014-Sep-25 13:33N 54°09' E 012°06'0 0.0
2014-Sep-25 12:33N 54°09' E 012°06'0 0.0
2014-Sep-25 11:33N 54°09' E 012°06'0 0.0
2014-Sep-25 10:33N 54°09' E 012°06'0 0.0
2014-Sep-25 09:33N 54°09' E 012°06'0 0.0
2014-Sep-25 08:27N 54°09' E 012°06'0 0.0
2014-Sep-25 07:33N 54°09' E 012°06'0 0.0
2014-Sep-25 06:33N 54°09' E 012°06'0 0.0
2014-Sep-25 05:33N 54°09' E 012°06'0 0.0
2014-Sep-25 04:33N 54°09' E 012°06'0 0.0
2014-Sep-25 03:33N 54°09' E 012°06'0 0.0
2014-Sep-25 02:33N 54°09' E 012°06'0 0.0
2014-Sep-25 01:33N 54°09' E 012°06'0 0.0
2014-Sep-25 00:33N 54°09' E 012°06'0 0.0
2014-Sep-24 23:33N 54°09' E 012°06'0 0.0
2014-Sep-24 22:33N 54°09' E 012°06'0 0.0
2014-Sep-24 21:33N 54°09' E 012°06'0 0.0
2014-Sep-24 20:33N 54°09' E 012°06'0 0.0
2014-Sep-24 19:33N 54°09' E 012°06'0 0.0
2014-Sep-24 18:33N 54°09' E 012°06'0 0.0
2014-Sep-24 17:33N 54°09' E 012°06'0 0.0
2014-Sep-24 16:33N 54°09' E 012°06'0 0.0
2014-Sep-24 15:33N 54°09' E 012°06'0 0.0
2014-Sep-24 14:32N 54°09' E 012°06'0 0.0
2014-Sep-24 13:33N 54°09' E 012°06'0 0.0
2014-Sep-24 12:33N 54°09' E 012°06'0 0.0
2014-Sep-24 11:29N 54°09' E 012°06'0 0.0
2014-Sep-24 10:33N 54°09' E 012°06'0 0.0
2014-Sep-24 09:33N 54°09' E 012°06'0 0.0
2014-Sep-24 08:33N 54°09' E 012°06'0 0.0
2014-Sep-24 07:33N 54°09' E 012°06'0 0.0
2014-Sep-24 06:33N 54°09' E 012°06'0 0.0
2014-Sep-24 05:33N 54°09' E 012°06'0 0.0
2014-Sep-24 04:33N 54°09' E 012°06'0 0.0
2014-Sep-24 03:33N 54°09' E 012°06'0 0.0
2014-Sep-24 02:32N 54°09' E 012°06'2 2.1
2014-Sep-24 01:33N 54°11' E 012°05'5 4.5
2014-Sep-24 00:31N 54°15' E 012°10'1 1.2
2014-Sep-23 23:33N 54°15' E 012°12'0 0.0
2014-Sep-23 22:33N 54°16' E 012°12'0 0.0
2014-Sep-23 21:33N 54°16' E 012°12'0 0.0
2014-Sep-23 20:33N 54°16' E 012°12'0 0.0
2014-Sep-23 19:33N 54°16' E 012°12'0 0.0
2014-Sep-23 18:33N 54°16' E 012°12'0 0.0
2014-Sep-23 17:33N 54°16' E 012°12'0 0.0
2014-Sep-23 16:33N 54°16' E 012°12'0 0.0
2014-Sep-23 15:33N 54°16' E 012°12'0 0.0
2014-Sep-23 14:33N 54°16' E 012°12'1 0.9
2014-Sep-23 13:33N 54°15' E 012°10'3 3.1
2014-Sep-23 12:33N 54°13' E 012°06'3 3.0
2014-Sep-23 11:33N 54°10' E 012°06'2 1.8
2014-Sep-23 10:33N 54°12' E 012°06'2 2.4
2014-Sep-23 09:33N 54°09' E 012°06'0 0.0
2014-Sep-23 08:33N 54°09' E 012°06'0 0.0
2014-Sep-23 07:33N 54°09' E 012°06'1 1.5
2014-Sep-23 06:33N 54°11' E 012°06'1 1.5
2014-Sep-23 05:33N 54°09' E 012°06'0 0.0
2014-Sep-23 04:33N 54°09' E 012°06'0 0.0
2014-Sep-23 03:33N 54°09' E 012°06'0 0.0
2014-Sep-23 02:33N 54°09' E 012°06'0 0.0
2014-Sep-23 01:33N 54°09' E 012°06'0 0.0
2014-Sep-23 00:33N 54°09' E 012°06'0 0.0
2014-Sep-22 23:33N 54°09' E 012°06'0 0.0
2014-Sep-22 22:29N 54°09' E 012°06'0 0.0
2014-Sep-22 21:33N 54°09' E 012°06'0 0.0
2014-Sep-22 20:32N 54°09' E 012°06'0 0.0
2014-Sep-22 19:31N 54°09' E 012°06'0 0.0
2014-Sep-22 18:29N 54°09' E 012°06'0 0.0
2014-Sep-22 17:32N 54°09' E 012°06'0 0.0
2014-Sep-22 16:33N 54°09' E 012°06'0 0.0
2014-Sep-22 15:32N 54°09' E 012°06'0 0.0
2014-Sep-22 14:33N 54°09' E 012°06'0 0.0
2014-Sep-22 13:33N 54°09' E 012°06'0 0.0
2014-Sep-22 12:33N 54°09' E 012°06'0 0.0
2014-Sep-22 11:33N 54°09' E 012°06'0 0.0
2014-Sep-22 10:33N 54°09' E 012°06'0 0.0
2014-Sep-22 09:33N 54°09' E 012°06'0 0.0
2014-Sep-22 08:33N 54°09' E 012°06'0 0.0
2014-Sep-22 07:33N 54°09' E 012°06'0 0.0
2014-Sep-22 06:33N 54°09' E 012°06'0 0.0
2014-Sep-22 05:33N 54°09' E 012°06'0 0.0
2014-Sep-22 04:32N 54°09' E 012°06'0 0.0
2014-Sep-22 03:33N 54°09' E 012°06'0 0.0
2014-Sep-22 02:33N 54°09' E 012°06'0 0.0
2014-Sep-22 01:33N 54°09' E 012°06'0 0.0
2014-Sep-22 00:33N 54°09' E 012°06'0 0.0
2014-Sep-21 23:31N 54°09' E 012°06'0 0.0
2014-Sep-21 22:33N 54°09' E 012°06'0 0.0
2014-Sep-21 21:33N 54°09' E 012°06'0 0.0
2014-Sep-21 20:32N 54°09' E 012°06'0 0.0
2014-Sep-21 19:32N 54°09' E 012°06'0 0.0
2014-Sep-21 18:33N 54°09' E 012°06'0 0.0
2014-Sep-21 17:33N 54°09' E 012°06'0 0.0
2014-Sep-21 16:33N 54°09' E 012°06'0 0.0
2014-Sep-21 15:33N 54°09' E 012°06'0 0.0
2014-Sep-21 14:33N 54°09' E 012°06'0 0.0
2014-Sep-21 13:33N 54°09' E 012°06'0 0.0
2014-Sep-21 12:33N 54°09' E 012°06'0 0.0
2014-Sep-21 11:33N 54°09' E 012°06'0 0.0
2014-Sep-21 10:33N 54°09' E 012°06'0 0.0
2014-Sep-21 09:34N 54°09' E 012°06'0 0.0
2014-Sep-21 08:33N 54°09' E 012°06'0 0.0
2014-Sep-21 07:33N 54°09' E 012°06'0 0.0
2014-Sep-21 06:34N 54°09' E 012°06'0 0.0
2014-Sep-21 05:34N 54°09' E 012°06'2 2.0
2014-Sep-21 04:33N 54°11' E 012°05'3 3.0
2014-Sep-21 03:33N 54°14' E 012°07'3 2.9
2014-Sep-21 02:33N 54°16' E 012°12'1 0.7
2014-Sep-21 01:34N 54°15' E 012°11'0 0.2
2014-Sep-21 00:33N 54°15' E 012°11'0 0.0
2014-Sep-20 23:33N 54°15' E 012°11'0 0.0
2014-Sep-20 22:33N 54°15' E 012°11'0 0.0
2014-Sep-20 21:34N 54°15' E 012°11'0 0.0
2014-Sep-20 20:34N 54°15' E 012°11'0 0.0
2014-Sep-20 19:33N 54°15' E 012°11'0 0.0
2014-Sep-20 18:33N 54°15' E 012°11'0 0.0
2014-Sep-20 17:33N 54°15' E 012°11'  

Dump ship's entire track history